Time;durP1;ratioP1;P1;durP2;ratioP2;P2;SDS_P1;SDS_P2;PMS_P1;PMS_P2;Temp;Humidity;BMP_temperature;BMP_pressure;BME280_temperature;BME280_humidity;BME280_pressure;Samples;Min_cycle;Max_cycle;Signal;HPM_P1;HPM_P2
2023/06/30 00:01:48;;;;;;;6.72;5.75;;;16.60;99.90;;;17.06;84.03;101438.38;5055530;28;20389;-72
2023/06/30 00:04:17;;;;;;;9.88;7.88;;;16.60;99.90;;;17.04;84.27;101439.31;5055022;28;20055;-73
2023/06/30 00:06:49;;;;;;;15.57;12.10;;;16.60;99.90;;;17.02;83.83;101435.78;5055404;28;20045;-72
2023/06/30 00:09:19;;;;;;;9.38;7.15;;;16.60;99.90;;;17.02;83.45;101430.44;5051255;28;20045;-72
2023/06/30 00:11:51;;;;;;;11.23;7.10;;;16.50;99.90;;;16.96;83.34;101430.56;5054952;28;20087;-71
2023/06/30 00:14:20;;;;;;;9.90;6.38;;;16.50;99.90;;;16.94;83.50;101437.72;5055301;28;20389;-72
2023/06/30 00:16:50;;;;;;;6.15;5.30;;;16.40;99.90;;;16.95;83.58;101448.41;5054859;28;20049;-73
2023/06/30 00:19:19;;;;;;;5.13;4.15;;;16.50;99.90;;;16.96;83.51;101428.78;5054906;28;20045;-73
2023/06/30 00:21:52;;;;;;;5.63;4.75;;;16.50;99.90;;;16.93;83.68;101428.84;5055201;28;20057;-72
2023/06/30 00:24:21;;;;;;;5.25;4.85;;;16.40;99.90;;;16.85;83.66;101424.56;5055148;28;20069;-73
2023/06/30 00:26:50;;;;;;;6.60;5.13;;;16.40;99.90;;;16.87;84.17;101420.97;5051570;28;20159;-72
2023/06/30 00:29:19;;;;;;;6.93;5.65;;;16.40;99.90;;;16.87;84.28;101423.63;5054824;28;20417;-71
2023/06/30 00:31:47;;;;;;;9.57;7.57;;;16.40;99.90;;;16.88;84.92;101422.72;5054934;28;20037;-72
2023/06/30 00:34:16;;;;;;;10.02;6.60;;;16.40;99.90;;;16.94;85.00;101417.25;5053721;28;20098;-73
2023/06/30 00:36:47;;;;;;;10.48;6.00;;;16.40;99.90;;;16.99;84.71;101414.47;5052910;28;20054;-72
2023/06/30 00:39:16;;;;;;;10.15;6.30;;;16.50;99.90;;;17.00;84.35;101414.44;5054743;28;20148;-72
2023/06/30 00:41:45;;;;;;;9.38;5.60;;;16.50;99.90;;;17.00;83.99;101411.75;5053598;28;20416;-72
2023/06/30 00:44:13;;;;;;;7.47;5.35;;;16.50;99.90;;;17.02;83.17;101412.59;5050233;28;20100;-72
2023/06/30 00:46:42;;;;;;;11.57;5.57;;;16.50;99.90;;;17.06;82.89;101405.41;5049676;28;20072;-72
2023/06/30 00:49:10;;;;;;;9.77;5.28;;;16.50;99.90;;;17.03;82.62;101401.00;5053393;28;20059;-71
2023/06/30 00:51:41;;;;;;;9.07;6.03;;;16.50;99.90;;;17.04;82.16;101408.09;5054767;28;20053;-72
2023/06/30 00:54:09;;;;;;;14.15;5.63;;;16.60;99.90;;;17.02;81.95;101406.38;5054461;28;20048;-72
2023/06/30 00:56:39;;;;;;;14.10;6.85;;;16.50;99.90;;;17.01;82.24;101413.50;5054807;28;20053;-73
2023/06/30 00:59:07;;;;;;;9.83;6.07;;;16.50;99.90;;;17.02;82.80;101403.69;5053310;28;20068;-72
2023/06/30 01:01:46;;;;;;;15.65;6.10;;;16.50;99.90;;;16.96;81.75;101383.34;5052282;28;20057;-72
2023/06/30 01:04:23;;;;;;;12.13;6.05;;;16.60;99.90;;;17.17;81.15;101411.38;5051004;28;20041;-72
2023/06/30 01:07:02;;;;;;;8.02;5.80;;;16.70;99.90;;;17.25;80.94;101411.22;5053066;28;20080;-73
2023/06/30 01:09:38;;;;;;;7.00;5.25;;;16.70;99.90;;;17.10;80.68;101380.34;5049984;28;20045;-72
2023/06/30 01:12:10;;;;;;;8.63;5.13;;;16.80;99.90;;;17.27;80.28;101409.38;5054241;28;20095;-73
2023/06/30 01:14:40;;;;;;;9.95;5.50;;;16.80;99.90;;;17.26;80.04;101412.97;5054020;28;20048;-73
2023/06/30 01:17:11;;;;;;;8.55;4.90;;;16.80;99.90;;;17.26;79.73;101407.63;5054144;28;20095;-73
2023/06/30 01:19:44;;;;;;;6.32;4.57;;;16.80;99.90;;;17.32;79.81;101418.19;5054045;28;20041;-72
2023/06/30 01:22:22;;;;;;;7.75;4.45;;;16.80;99.90;;;17.27;79.34;101410.25;5050892;28;20049;-72
2023/06/30 01:24:59;;;;;;;6.55;4.68;;;16.80;99.90;;;17.19;79.89;101417.56;5053719;28;20084;-72
2023/06/30 01:27:32;;;;;;;9.73;4.93;;;16.70;99.90;;;17.14;79.52;101415.03;5048806;28;20063;-73
2023/06/30 01:30:01;;;;;;;9.95;4.60;;;16.70;99.90;;;17.15;79.35;101426.56;5053592;28;20513;-72
2023/06/30 01:32:29;;;;;;;9.63;5.40;;;16.60;99.90;;;17.11;79.69;101401.69;5053875;28;20456;-72
2023/06/30 01:34:58;;;;;;;9.68;5.00;;;16.70;99.90;;;17.15;79.67;101403.41;5060946;28;20047;-72
2023/06/30 01:37:26;;;;;;;7.05;4.43;;;16.70;99.90;;;17.18;79.61;101402.44;5053743;28;20536;-72
2023/06/30 01:39:56;;;;;;;9.18;5.07;;;16.70;99.90;;;17.09;79.70;101400.00;5052326;28;20041;-72
2023/06/30 01:42:26;;;;;;;8.07;5.03;;;16.60;99.90;;;17.18;79.72;101405.13;5053798;28;20056;-72
2023/06/30 01:44:57;;;;;;;9.98;4.53;;;16.60;99.90;;;17.19;80.14;101412.22;5052157;28;20052;-71
2023/06/30 01:47:26;;;;;;;9.43;4.32;;;16.70;99.90;;;17.28;80.14;101401.34;5049719;28;20091;-72
2023/06/30 01:49:55;;;;;;;7.57;4.65;;;16.80;99.90;;;17.26;80.10;101399.59;5053432;28;20072;-71
2023/06/30 01:52:24;;;;;;;6.63;5.13;;;16.70;99.90;;;17.32;79.90;101394.13;5053207;28;20465;-72
2023/06/30 01:54:53;;;;;;;8.48;5.22;;;16.80;99.90;;;17.34;80.01;101387.81;5052046;28;20379;-72
2023/06/30 01:57:21;;;;;;;7.35;5.07;;;16.80;99.90;;;17.36;79.99;101386.00;5050758;28;20042;-72
2023/06/30 01:59:49;;;;;;;5.82;4.10;;;16.90;99.90;;;17.27;80.24;101383.50;5051643;28;20486;-72
2023/06/30 02:02:19;;;;;;;4.20;3.80;;;16.80;99.90;;;17.09;79.49;101384.81;5053089;28;20469;-72
2023/06/30 02:04:47;;;;;;;4.55;4.00;;;16.70;99.90;;;16.92;79.44;101378.09;5051758;28;20072;-71
2023/06/30 02:07:16;;;;;;;7.05;4.70;;;16.50;99.90;;;16.87;78.90;101383.56;5065057;28;20045;-70
2023/06/30 02:09:44;;;;;;;7.40;4.68;;;16.40;99.90;;;16.78;78.30;101380.19;5049321;28;20066;-73
2023/06/30 02:12:16;;;;;;;7.03;4.30;;;16.30;99.90;;;16.64;78.59;101380.50;5052982;28;20052;-72
2023/06/30 02:14:45;;;;;;;5.82;3.97;;;16.20;99.90;;;16.61;79.64;101382.31;5049628;28;20052;-72
2023/06/30 02:17:13;;;;;;;5.43;3.92;;;16.10;99.90;;;16.60;80.71;101389.47;5052538;28;20114;-72
2023/06/30 02:19:43;;;;;;;4.53;4.05;;;16.10;99.90;;;16.60;80.81;101388.59;5052589;28;20776;-72
2023/06/30 02:22:11;;;;;;;6.50;4.27;;;16.10;99.90;;;16.54;81.33;101386.94;5066858;28;20042;-72
2023/06/30 02:24:40;;;;;;;4.93;4.43;;;16.10;99.90;;;16.60;81.78;101391.25;5052746;28;20127;-72
2023/06/30 02:27:08;;;;;;;3.92;3.63;;;16.10;99.90;;;16.59;82.61;101398.41;5051340;28;20126;-72
2023/06/30 02:29:37;;;;;;;6.25;4.53;;;16.10;99.90;;;16.45;81.75;101383.53;5052701;28;20079;-72
2023/06/30 02:32:07;;;;;;;6.30;4.00;;;16.00;99.90;;;16.41;82.10;101390.75;5039725;28;20478;-72
2023/06/30 02:34:36;;;;;;;3.67;3.38;;;15.90;99.90;;;16.32;82.95;101364.19;5052644;28;20056;-72
2023/06/30 02:37:08;;;;;;;3.60;3.30;;;16.00;99.90;;;16.27;83.03;101391.00;5051237;28;20049;-73
2023/06/30 02:39:36;;;;;;;2.92;2.63;;;15.80;99.90;;;16.18;83.09;101384.97;5051234;28;20049;-72
2023/06/30 02:42:05;;;;;;;2.50;2.40;;;15.70;99.90;;;16.10;83.51;101382.41;5052499;28;20036;-72
2023/06/30 02:44:34;;;;;;;3.00;2.75;;;15.70;99.90;;;16.02;84.18;101379.03;5067540;28;20061;-71
2023/06/30 02:47:03;;;;;;;3.60;3.30;;;15.60;99.90;;;15.96;84.43;101381.81;5064444;28;20045;-72
2023/06/30 02:49:32;;;;;;;3.33;3.08;;;15.50;99.90;;;15.92;84.45;101392.56;5050961;28;20055;-73
2023/06/30 02:52:01;;;;;;;3.30;3.10;;;15.40;99.90;;;15.86;84.45;101385.56;5047531;28;20154;-72
2023/06/30 02:54:31;;;;;;;4.18;2.88;;;15.40;99.90;;;15.81;84.47;101381.22;5050898;28;20122;-71
2023/06/30 02:56:59;;;;;;;10.97;3.87;;;15.40;99.90;;;15.86;84.83;101380.22;5050957;28;20045;-72
2023/06/30 02:59:28;;;;;;;3.60;3.40;;;15.40;99.90;;;15.87;84.39;101373.09;5050937;28;20295;-73
2023/06/30 03:01:56;;;;;;;4.22;3.53;;;15.40;99.90;;;15.89;84.23;101377.47;5049393;28;20050;-71
2023/06/30 03:04:25;;;;;;;6.03;4.88;;;15.40;99.90;;;15.85;83.26;101382.91;5067351;28;20057;-71
2023/06/30 03:06:55;;;;;;;9.13;5.55;;;15.40;99.90;;;15.81;82.99;101381.22;5050561;28;20048;-72
2023/06/30 03:09:23;;;;;;;5.88;5.10;;;15.40;99.90;;;15.85;83.31;101378.44;5050823;28;20048;-72
2023/06/30 03:11:53;;;;;;;8.40;5.05;;;15.40;99.90;;;15.93;83.49;101389.00;5050854;28;20052;-71
2023/06/30 03:14:23;;;;;;;9.25;5.88;;;15.40;99.90;;;16.06;83.14;101386.09;5050914;28;20049;-72
2023/06/30 03:16:52;;;;;;;7.38;5.90;;;15.60;99.90;;;16.06;82.87;101378.06;5048564;28;20041;-72
2023/06/30 03:19:20;;;;;;;10.00;6.32;;;15.60;99.90;;;16.09;82.68;101380.66;5067597;28;20104;-72
2023/06/30 03:21:48;;;;;;;7.35;5.90;;;15.70;99.90;;;16.17;82.44;101375.19;5050755;28;20045;-72
2023/06/30 03:24:17;;;;;;;6.05;5.45;;;15.70;99.90;;;16.23;82.14;101377.75;5052112;28;20465;-72
2023/06/30 03:26:45;;;;;;;8.27;5.70;;;15.80;99.90;;;16.21;82.11;101377.78;5052177;28;20394;-72
2023/06/30 03:29:22;;;;;;;8.98;5.40;;;15.80;99.90;;;16.10;81.64;101370.88;5050825;28;20068;-73
2023/06/30 03:31:53;;;;;;;8.35;5.35;;;15.90;99.90;;;16.32;81.49;101385.56;5064493;28;20494;-71
2023/06/30 03:34:22;;;;;;;8.15;5.88;;;15.90;99.90;;;16.26;81.79;101383.91;5054643;28;20060;-72
2023/06/30 03:36:50;;;;;;;6.32;5.65;;;15.80;99.90;;;16.24;82.97;101382.16;5053432;28;20391;-72
2023/06/30 03:39:20;;;;;;;4.15;3.72;;;15.80;99.90;;;16.12;84.16;101377.94;5071936;28;20394;-72
2023/06/30 03:41:49;;;;;;;4.00;3.70;;;15.70;99.90;;;16.13;84.93;101385.03;5055061;28;20048;-72
2023/06/30 03:44:18;;;;;;;4.03;3.50;;;15.60;99.90;;;16.14;85.15;101380.59;5054569;28;20506;-72
2023/06/30 03:46:48;;;;;;;5.53;4.20;;;15.70;99.90;;;16.18;85.14;101380.50;5055676;28;20506;-72
2023/06/30 03:49:16;;;;;;;5.80;4.40;;;15.70;99.90;;;16.23;84.46;101386.63;5052017;28;20540;-71
2023/06/30 03:51:44;;;;;;;7.35;5.20;;;15.80;99.90;;;16.15;83.67;101369.88;5067574;28;20493;-72
2023/06/30 03:54:15;;;;;;;6.28;4.40;;;15.70;99.90;;;16.18;84.50;101374.28;5054497;28;20068;-72
2023/06/30 03:56:44;;;;;;;4.93;4.22;;;15.70;99.90;;;16.27;84.81;101366.09;5052562;28;20072;-72
2023/06/30 03:59:12;;;;;;;5.00;4.50;;;15.80;99.90;;;16.25;85.24;101368.81;5070956;28;20375;-72
2023/06/30 04:01:41;;;;;;;6.20;4.90;;;15.80;99.90;;;16.25;85.40;101358.13;5053797;28;20059;-72
2023/06/30 04:04:11;;;;;;;5.07;4.68;;;15.80;99.90;;;16.36;85.83;101367.69;5055581;28;20139;-72
2023/06/30 04:06:40;;;;;;;5.15;4.40;;;15.90;99.90;;;16.35;85.40;101366.81;5055381;28;20131;-72
2023/06/30 04:09:08;;;;;;;6.43;5.00;;;15.90;99.90;;;16.09;84.95;101331.75;5054245;28;20505;-73
2023/06/30 04:11:36;;;;;;;8.98;5.30;;;15.80;99.90;;;16.34;84.90;101361.53;5051288;28;20045;-72
2023/06/30 04:14:05;;;;;;;6.82;5.28;;;15.80;99.90;;;16.40;85.16;101366.72;5055161;28;20386;-72
2023/06/30 04:16:33;;;;;;;5.30;4.65;;;15.90;99.90;;;16.44;84.76;101369.31;5055134;28;20041;-72
2023/06/30 04:19:02;;;;;;;7.68;5.55;;;16.00;99.90;;;16.49;84.34;101350.56;5054936;28;20055;-73
2023/06/30 04:21:32;;;;;;;7.25;5.38;;;16.00;99.90;;;16.51;84.40;101362.94;5054830;28;20477;-72
2023/06/30 04:24:00;;;;;;;7.23;5.43;;;16.00;99.90;;;16.57;84.61;101359.28;5054911;28;20045;-72
2023/06/30 04:26:30;;;;;;;10.07;5.57;;;16.10;99.90;;;16.61;83.93;101361.84;5054859;28;20288;-72
2023/06/30 04:28:59;;;;;;;7.38;5.60;;;16.10;99.90;;;16.67;82.97;101352.81;5055115;28;20037;-72
2023/06/30 04:31:27;;;;;;;8.60;6.10;;;16.20;99.90;;;16.70;82.73;101358.13;5054889;28;20053;-72
2023/06/30 04:33:55;;;;;;;12.73;5.88;;;16.20;99.90;;;16.77;82.67;101359.72;5054943;28;20071;-72
2023/06/30 04:36:24;;;;;;;9.27;5.88;;;16.30;99.90;;;16.83;82.80;101362.28;5054523;28;20041;-72
2023/06/30 04:38:53;;;;;;;9.02;5.35;;;16.40;99.90;;;17.01;82.79;101360.03;5050725;28;20433;-71
2023/06/30 04:41:23;;;;;;;8.48;5.50;;;16.50;99.90;;;17.23;82.20;101375.63;5054419;28;20052;-72
2023/06/30 04:43:51;;;;;;;11.13;5.80;;;16.70;99.90;;;17.30;81.60;101359.38;5052998;28;20049;-72
2023/06/30 04:46:20;;;;;;;11.38;6.45;;;16.90;99.90;;;17.48;81.30;101368.78;5051598;28;20053;-72
2023/06/30 04:48:48;;;;;;;12.50;5.97;;;17.00;99.90;;;17.56;80.92;101372.13;5069912;28;20045;-71
2023/06/30 04:51:18;;;;;;;10.63;6.28;;;17.20;99.90;;;17.57;80.81;101373.91;5054344;28;20099;-72
2023/06/30 04:53:47;;;;;;;15.65;6.43;;;17.20;99.90;;;17.62;80.27;101375.53;5054264;28;20040;-72
2023/06/30 04:56:17;;;;;;;10.77;5.65;;;17.20;99.90;;;17.76;79.92;101377.88;5054650;28;20435;-72
2023/06/30 04:58:49;;;;;;;16.40;6.03;;;17.30;99.90;;;17.87;79.76;101381.16;5051485;28;20052;-72
2023/06/30 05:01:18;;;;;;;14.10;6.03;;;17.40;99.90;;;17.97;79.55;101378.19;5054337;28;20099;-72
2023/06/30 05:03:46;;;;;;;13.95;6.50;;;17.50;99.90;;;18.06;79.33;101381.56;5051346;28;20053;-71
2023/06/30 05:06:15;;;;;;;12.30;6.15;;;17.60;99.90;;;18.14;79.35;101372.38;5054045;28;20037;-71
2023/06/30 05:08:43;;;;;;;11.05;6.38;;;17.70;99.90;;;18.19;79.57;101372.25;5054282;28;20049;-73
2023/06/30 05:11:11;;;;;;;11.02;6.63;;;17.80;99.90;;;18.32;80.12;101371.00;5052462;28;20056;-72
2023/06/30 05:13:41;;;;;;;8.88;5.57;;;17.90;99.90;;;18.47;80.31;101368.78;5053959;28;20044;-71
2023/06/30 05:16:12;;;;;;;7.53;5.47;;;18.00;99.90;;;18.60;80.52;101380.06;5053861;28;20053;-72
2023/06/30 05:18:41;;;;;;;10.07;5.97;;;18.20;99.90;;;18.66;80.36;101370.00;5050481;28;20045;-72
2023/06/30 05:21:09;;;;;;;9.95;5.95;;;18.30;99.90;;;18.76;80.49;101359.88;5054064;28;20045;-72
2023/06/30 05:23:38;;;;;;;7.63;5.53;;;18.40;99.90;;;18.79;79.91;101363.34;5053642;28;20071;-72
2023/06/30 05:26:06;;;;;;;8.85;5.53;;;18.40;99.90;;;18.87;80.21;101366.69;5053942;28;20044;-72
2023/06/30 05:28:36;;;;;;;11.10;6.47;;;18.50;99.90;;;19.03;80.23;101372.44;5053877;28;20068;-73
2023/06/30 05:31:06;;;;;;;9.60;6.47;;;18.60;99.90;;;19.03;79.81;101372.44;5054217;28;20114;-73
2023/06/30 05:33:34;;;;;;;8.70;5.80;;;18.60;99.90;;;19.12;79.38;101371.31;5052311;28;20178;-73
2023/06/30 05:36:03;;;;;;;10.23;5.85;;;18.70;99.90;;;19.20;79.32;101362.06;5065871;28;20085;-73
2023/06/30 05:38:31;;;;;;;10.25;5.85;;;18.80;99.90;;;19.18;79.04;101357.69;5053918;28;20122;-75
2023/06/30 05:40:59;;;;;;;10.70;6.22;;;18.90;99.90;;;19.40;79.05;101373.09;5050236;28;20045;-73
2023/06/30 05:43:28;;;;;;;8.20;5.80;;;19.00;99.90;;;19.54;78.74;101378.00;5053534;28;20045;-73
2023/06/30 05:45:56;;;;;;;10.75;5.85;;;19.10;99.90;;;19.53;78.44;101352.97;5049565;28;20064;-74
2023/06/30 05:48:26;;;;;;;13.35;5.97;;;19.30;99.90;;;19.73;78.34;101371.97;5053411;28;20406;-73
2023/06/30 05:50:54;;;;;;;9.67;6.00;;;19.40;99.90;;;19.86;77.96;101372.41;5053081;28;20052;-73
2023/06/30 05:53:23;;;;;;;9.80;5.88;;;19.50;99.90;;;20.01;78.05;101371.00;5053286;28;20290;-73
2023/06/30 05:55:51;;;;;;;13.80;6.53;;;19.60;99.90;;;20.13;77.96;101378.66;5053021;28;20060;-72
2023/06/30 05:58:19;;;;;;;8.77;6.30;;;19.70;99.90;;;20.21;77.86;101372.09;5052970;28;20045;-72
2023/06/30 06:00:48;;;;;;;12.10;6.38;;;19.80;99.90;;;20.35;78.13;101374.28;5053012;28;20159;-73
2023/06/30 06:03:16;;;;;;;12.32;6.90;;;20.00;99.90;;;20.47;78.12;101377.41;5052813;28;20067;-73
2023/06/30 06:05:46;;;;;;;11.85;5.70;;;20.10;99.90;;;20.59;77.62;101382.34;5048003;28;20045;-72
2023/06/30 06:08:15;;;;;;;;;;;20.20;99.90;;;20.72;76.10;101379.16;5052235;28;20151;-73
2023/06/30 06:10:45;;;;;;;9.05;5.63;;;20.40;99.90;;;20.81;75.70;101378.84;5052821;28;19952;-72
2023/06/30 06:13:31;;;;;;;11.73;6.50;;;20.50;99.90;;;20.92;75.40;101373.91;5052754;28;20037;-73
2023/06/30 06:15:59;;;;;;;11.77;6.57;;;20.50;99.90;;;20.92;74.83;101355.97;5049172;28;20760;-73
2023/06/30 06:18:28;;;;;;;13.57;6.80;;;20.70;99.90;;;21.11;74.77;101373.16;5052660;28;20238;-73
2023/06/30 06:20:59;;;;;;;9.23;6.57;;;20.80;99.90;;;21.18;74.65;101376.47;5052607;28;20063;-72
2023/06/30 06:23:27;;;;;;;;;;;20.80;99.90;;;21.30;74.38;101376.88;5053250;28;20086;-72
2023/06/30 06:25:56;;;;;;;11.23;5.57;;;21.00;99.90;;;21.35;73.51;101380.22;5052741;28;19927;-72
2023/06/30 06:28:24;;;;;;;10.63;5.38;;;21.00;99.90;;;21.40;72.21;101375.56;5052676;28;20425;-73
2023/06/30 06:30:53;;;;;;;7.22;4.85;;;21.10;99.90;;;21.50;71.13;101386.81;5051139;28;20486;-71
2023/06/30 06:33:21;;;;;;;11.52;5.57;;;21.10;99.90;;;21.55;70.67;101377.63;5052529;28;20524;-73
2023/06/30 06:35:51;;;;;;;8.15;5.25;;;21.20;99.90;;;21.64;70.49;101384.41;5052375;28;20049;-73
2023/06/30 06:38:21;;;;;;;11.55;5.13;;;21.30;99.90;;;21.74;70.99;101383.09;5052525;28;20060;-73
2023/06/30 06:40:50;;;;;;;12.32;5.35;;;21.40;99.90;;;21.79;70.54;101381.09;5052218;28;20068;-73
2023/06/30 06:43:18;;;;;;;7.55;4.85;;;21.40;99.90;;;21.92;69.97;101389.56;5049239;28;20091;-73
2023/06/30 06:45:47;;;;;;;9.50;4.88;;;21.50;99.90;;;22.02;69.28;101382.84;5052025;28;20095;-72
2023/06/30 06:48:23;;;;;;;4.55;4.10;;;21.60;99.90;;;22.12;68.25;101382.38;5052580;28;20064;-72
2023/06/30 06:50:54;;;;;;;6.53;3.83;;;21.80;99.90;;;22.15;66.64;101381.34;5067723;28;20044;-72
2023/06/30 06:53:26;;;;;;;10.70;4.22;;;21.80;99.90;;;22.19;66.57;101366.78;5048508;28;20049;-73
2023/06/30 06:55:56;;;;;;;10.00;4.47;;;21.90;99.90;;;22.31;67.20;101380.63;5052265;28;20410;-72
2023/06/30 06:58:27;;;;;;;6.90;4.22;;;21.90;99.90;;;22.42;66.81;101380.13;5052190;28;20045;-65
2023/06/30 07:00:55;;;;;;;9.77;4.82;;;22.00;99.90;;;22.48;65.73;101378.97;5052051;28;20053;-64
2023/06/30 07:03:24;;;;;;;6.68;4.13;;;22.10;99.90;;;22.44;64.88;101356.66;5052085;28;20072;-64
2023/06/30 07:05:54;;;;;;;9.93;4.70;;;22.20;99.90;;;22.59;64.44;101377.56;5051787;28;20048;-65
2023/06/30 07:08:26;;;;;;;7.72;4.20;;;22.30;99.90;;;22.64;64.38;101380.06;5047958;28;20103;-66
2023/06/30 07:10:56;;;;;;;7.97;4.07;;;22.30;99.90;;;22.74;63.86;101376.00;5051836;28;20052;-65
2023/06/30 07:13:24;;;;;;;8.25;4.03;;;22.40;99.90;;;22.76;63.13;101376.81;5048867;28;20057;-64
2023/06/30 07:15:53;;;;;;;8.32;4.25;;;22.40;99.90;;;22.89;62.86;101377.97;5051751;28;20079;-64
2023/06/30 07:18:23;;;;;;;7.00;4.03;;;22.50;99.90;;;22.94;61.34;101382.22;5051768;28;20139;-64
2023/06/30 07:20:54;;;;;;;6.97;4.43;;;22.60;99.90;;;22.97;61.52;101383.91;5051699;28;20048;-63
2023/06/30 07:23:25;;;;;;;9.63;4.10;;;22.60;99.90;;;22.94;61.28;101378.63;5050759;28;20103;-64
2023/06/30 07:25:54;;;;;;;8.15;4.05;;;22.60;99.90;;;22.95;60.85;101377.69;5047244;28;20148;-64
2023/06/30 07:28:23;;;;;;;7.47;3.88;;;22.60;99.90;;;23.01;60.94;101369.31;5051707;28;20410;-65
2023/06/30 07:30:52;;;;;;;6.38;3.92;;;22.70;99.90;;;23.16;59.88;101379.38;5051717;28;20428;-65
2023/06/30 07:33:20;;;;;;;6.03;3.85;;;22.80;99.90;;;23.18;58.59;101372.06;5051686;28;20401;-65
2023/06/30 07:35:49;;;;;;;6.22;3.90;;;22.80;99.90;;;23.30;59.04;101371.47;5051850;28;20049;-68
2023/06/30 07:38:17;;;;;;;8.65;4.05;;;23.00;99.90;;;23.20;58.82;101375.56;5052066;28;20063;-68
2023/06/30 07:40:47;;;;;;;6.43;3.85;;;22.90;99.90;;;23.15;57.85;101370.38;5052124;28;20118;-66
2023/06/30 07:43:24;;;;;;;9.27;3.53;;;22.80;99.90;;;23.22;58.80;101370.97;5048326;28;20037;-67
2023/06/30 07:45:52;;;;;;;6.15;3.50;;;22.90;99.90;;;23.35;58.23;101377.56;5051943;28;20037;-67
2023/06/30 07:48:21;;;;;;;11.32;3.85;;;23.00;99.90;;;23.32;57.61;101360.63;5051841;28;20099;-67
2023/06/30 07:50:49;;;;;;;7.00;3.72;;;23.00;99.90;;;23.29;56.81;101369.72;5051697;28;20060;-67
2023/06/30 07:53:38;;;;;;;7.25;3.70;;;23.00;99.90;;;23.41;56.87;101371.84;5048187;28;20599;-65
2023/06/30 07:56:08;;;;;;;6.28;3.80;;;23.00;99.90;;;23.40;56.48;101369.22;5051480;28;20051;-65
2023/06/30 07:58:36;;;;;;;6.13;3.87;;;23.10;99.90;;;23.33;56.41;101370.47;5051881;28;20142;-65
2023/06/30 08:01:08;;;;;;;10.60;3.92;;;23.00;99.90;;;23.38;56.13;101366.63;5050042;28;20115;-64
2023/06/30 08:03:45;;;;;;;8.75;3.75;;;23.00;99.90;;;23.49;55.59;101366.06;5051947;28;20037;-64
2023/06/30 08:06:19;;;;;;;7.15;3.63;;;23.10;99.90;;;23.49;54.92;101366.06;5048587;28;20397;-64
2023/06/30 08:08:47;;;;;;;4.75;3.67;;;23.10;99.90;;;23.61;54.61;101371.75;5051379;28;20076;-64
2023/06/30 08:11:17;;;;;;;5.63;3.70;;;23.20;99.90;;;23.79;55.71;101370.81;5051325;28;20074;-64
2023/06/30 08:13:46;;;;;;;5.25;3.70;;;23.40;99.90;;;23.90;54.54;101381.06;5051357;28;20106;-64
2023/06/30 08:16:15;;;;;;;4.53;3.47;;;23.50;99.90;;;23.87;55.23;101370.41;5049793;28;20093;-64
2023/06/30 08:18:43;;;;;;;6.45;3.85;;;23.50;99.90;;;23.97;55.25;101375.28;5051789;28;20053;-64
2023/06/30 08:21:20;;;;;;;8.07;4.28;;;23.60;99.90;;;23.86;54.52;101361.44;5051457;28;20486;-65
2023/06/30 08:23:49;;;;;;;6.78;4.05;;;23.50;99.90;;;23.98;54.54;101362.66;5054815;28;20099;-67
2023/06/30 08:26:18;;;;;;;7.60;3.63;;;23.60;99.90;;;24.03;54.60;101366.88;5055342;28;20071;-70
2023/06/30 08:28:47;;;;;;;7.28;3.78;;;23.70;99.90;;;23.92;55.22;101361.13;5054783;28;20080;-69
2023/06/30 08:31:15;;;;;;;5.35;3.65;;;23.50;99.90;;;23.95;54.83;101357.38;5054623;28;20045;-65
2023/06/30 08:33:44;;;;;;;6.38;3.92;;;23.50;99.90;;;23.96;54.24;101356.44;5054598;28;20049;-65
2023/06/30 08:36:12;;;;;;;7.35;4.10;;;23.60;99.90;;;23.93;53.36;101359.28;5054491;28;20513;-63
2023/06/30 08:38:41;;;;;;;5.10;3.97;;;23.50;99.90;;;23.76;54.12;101351.19;5054802;28;20049;-70
2023/06/30 08:41:10;;;;;;;5.13;3.55;;;23.40;99.90;;;23.73;53.07;101349.50;5054522;28;20422;-64
2023/06/30 08:43:42;;;;;;;7.55;3.80;;;23.30;99.90;;;23.77;53.15;101342.97;5054217;28;20037;-66
2023/06/30 08:46:13;;;;;;;4.82;3.72;;;23.30;99.90;;;23.87;53.27;101346.97;5054278;28;20483;-65
2023/06/30 08:48:42;;;;;;;6.78;3.70;;;23.40;99.90;;;23.86;53.57;101345.22;5054383;28;20051;-67
2023/06/30 08:51:11;;;;;;;10.10;3.90;;;23.50;99.90;;;23.90;53.17;101340.53;5054301;28;20041;-66
2023/06/30 08:53:43;;;;;;;8.18;4.18;;;23.50;99.90;;;23.87;53.21;101329.88;5054547;28;20103;-65
2023/06/30 08:56:14;;;;;;;7.72;4.07;;;23.50;99.90;;;23.85;52.63;101332.66;5050213;28;20041;-64
2023/06/30 08:58:43;;;;;;;4.20;3.75;;;23.50;99.90;;;23.88;52.79;101316.31;5054131;28;20445;-65
2023/06/30 09:01:14;;;;;;;4.95;3.35;;;23.50;99.90;;;23.94;53.09;101332.16;5050644;28;20064;-67
2023/06/30 09:03:42;;;;;;;;;;;23.50;99.90;;;23.83;52.04;101312.94;5054587;28;20072;-78
2023/06/30 09:06:13;;;;;;;6.13;3.80;;;23.60;99.90;;;23.80;52.10;101332.03;5052936;28;19925;-79
2023/06/30 09:08:51;;;;;;;3.85;3.20;;;23.40;99.90;;;23.78;51.68;101323.13;5054518;28;20056;-76
2023/06/30 09:11:23;;;;;;;6.00;4.15;;;23.40;99.90;;;23.86;52.17;101320.03;5050797;28;20171;-71
2023/06/30 09:14:00;;;;;;;5.00;3.63;;;23.40;99.90;;;23.92;52.01;101319.72;5054225;28;20056;-73
2023/06/30 09:16:30;;;;;;;9.63;3.70;;;23.50;99.90;;;23.97;51.65;101315.81;5054082;28;20086;-73
2023/06/30 09:18:59;;;;;;;6.18;3.90;;;23.60;99.90;;;23.81;52.05;101301.34;5054147;28;20379;-75
2023/06/30 09:21:27;;;;;;;11.77;4.10;;;23.50;99.90;;;23.83;51.35;101312.94;5053962;28;20048;-72
2023/06/30 09:23:57;;;;;;;7.25;4.40;;;23.40;99.90;;;23.77;51.64;101309.69;5054254;28;20095;-72
2023/06/30 09:26:29;;;;;;;5.73;3.63;;;23.40;99.90;;;23.72;51.65;101298.25;5054440;28;20047;-72
2023/06/30 09:29:02;;;;;;;10.90;4.15;;;23.30;99.90;;;23.48;52.48;101304.91;5051932;28;20081;-79
2023/06/30 09:31:32;;;;;;;6.43;4.05;;;23.20;99.90;;;23.53;53.88;101298.31;5069168;28;20060;-69
2023/06/30 09:34:11;;;;;;;8.93;4.28;;;23.10;99.90;;;23.58;53.47;101307.06;5053722;28;20041;-70
2023/06/30 09:36:47;;;;;;;10.88;4.30;;;23.20;99.90;;;23.67;52.99;101303.03;5051482;28;20385;-79
2023/06/30 09:39:16;;;;;;;7.30;4.22;;;23.30;99.90;;;23.58;52.70;101281.84;5053688;28;20489;-73
2023/06/30 09:41:46;;;;;;;7.07;3.92;;;23.30;99.90;;;23.81;52.89;101306.75;5053534;28;20120;-74
2023/06/30 09:44:20;;;;;;;6.23;3.90;;;23.40;99.90;;;23.81;52.78;101303.19;5053356;28;20052;-74
2023/06/30 09:46:49;;;;;;;7.78;4.28;;;23.40;99.90;;;23.85;52.93;101294.81;5050025;28;20554;-73
2023/06/30 09:49:25;;;;;;;7.80;4.72;;;23.50;99.90;;;23.88;51.63;101308.19;5053369;28;20045;-76
2023/06/30 09:51:56;;;;;;;7.70;4.95;;;23.50;99.90;;;23.76;52.54;101306.13;5052348;28;20532;-82
2023/06/30 09:54:25;;;;;;;6.80;4.38;;;23.30;99.90;;;23.81;53.90;101306.75;5053309;28;20044;-73
2023/06/30 09:57:11;;;;;;;7.05;4.40;;;23.40;99.90;;;23.77;53.47;101302.44;5051685;28;20505;-67
2023/06/30 09:59:41;;;;;;;6.03;4.15;;;23.40;99.90;;;23.91;53.50;101299.91;5053217;28;20053;-66
2023/06/30 10:02:10;;;;;;;4.43;3.70;;;23.50;99.90;;;23.88;53.61;101286.56;5053421;28;20064;-67
2023/06/30 10:04:39;;;;;;;7.28;4.40;;;23.50;99.90;;;23.97;51.67;101293.31;5053174;28;20448;-69
2023/06/30 10:07:08;;;;;;;4.95;4.22;;;23.60;99.90;;;23.99;51.70;101292.28;5049215;28;20479;-68
2023/06/30 10:09:39;;;;;;;6.57;4.53;;;23.60;99.90;;;23.98;51.56;101298.63;5052777;28;20120;-67
2023/06/30 10:12:09;;;;;;;10.15;4.22;;;23.60;99.90;;;23.90;51.70;101294.59;5053005;28;20045;-67
2023/06/30 10:14:38;;;;;;;5.88;3.83;;;23.50;99.90;;;23.91;51.38;101294.50;5052734;28;20044;-67
2023/06/30 10:17:09;;;;;;;5.72;3.95;;;23.50;99.90;;;23.76;50.82;101295.31;5050806;28;20045;-66
2023/06/30 10:19:40;;;;;;;7.18;3.90;;;23.30;99.90;;;23.64;50.68;101286.94;5052587;28;20045;-66
2023/06/30 10:22:08;;;;;;;;;;;23.20;99.90;;;23.09;51.34;101214.13;5049469;28;20044;-67
2023/06/30 10:24:39;;;;;;;9.60;4.78;;;23.20;99.90;;;23.51;51.17;101284.03;5052480;28;19960;-66